createdAt,value
2018-08-13T00:00:45.626Z,20.17
2018-08-13T00:01:45.589Z,20.24
2018-08-13T00:02:45.570Z,20.21
2018-08-13T00:03:45.513Z,20.28
2018-08-13T00:04:45.473Z,20.33
2018-08-13T00:05:45.436Z,20.32
2018-08-13T00:06:45.408Z,20.24
2018-08-13T00:07:45.395Z,20.28
2018-08-13T00:08:45.329Z,20.24
2018-08-13T00:09:45.291Z,20.24
2018-08-13T00:10:45.281Z,20.35
2018-08-13T00:11:45.226Z,20.26
2018-08-13T00:12:45.216Z,20.31
2018-08-13T00:13:45.153Z,20.28
2018-08-13T00:14:45.134Z,20.32
2018-08-13T00:15:45.074Z,20.21
2018-08-13T00:16:45.076Z,20.20
2018-08-13T00:17:45.057Z,20.20
2018-08-13T00:18:44.962Z,20.17
2018-08-13T00:19:55.428Z,20.16
2018-08-13T00:20:44.903Z,20.13
2018-08-13T00:21:44.887Z,20.14
2018-08-13T00:22:44.820Z,20.11
2018-08-13T00:23:44.789Z,20.16
2018-08-13T00:24:44.759Z,20.14
2018-08-13T00:25:44.718Z,20.17
2018-08-13T00:26:44.711Z,20.16
2018-08-13T00:27:44.647Z,20.13
2018-08-13T00:28:44.608Z,20.13
2018-08-13T00:29:44.567Z,20.17
2018-08-13T00:30:44.538Z,20.17
2018-08-13T00:31:44.518Z,20.14
2018-08-13T00:32:44.467Z,20.14
2018-08-13T00:33:44.472Z,20.18
2018-08-13T00:34:44.396Z,20.17
2018-08-13T00:35:44.361Z,20.17
2018-08-13T00:36:44.341Z,20.06
2018-08-13T00:37:44.277Z,20.10
2018-08-13T00:38:44.251Z,20.03
2018-08-13T00:39:44.215Z,20.02
2018-08-13T00:40:44.176Z,20.02
2018-08-13T00:41:44.166Z,20.05
2018-08-13T00:42:44.098Z,20.03
2018-08-13T00:43:44.065Z,20.06
2018-08-13T00:44:44.033Z,20.06
2018-08-13T00:45:43.998Z,20.08
2018-08-13T00:46:43.984Z,20.02
2018-08-13T00:47:43.924Z,20.02
2018-08-13T00:48:43.886Z,20.17
2018-08-13T00:49:43.848Z,20.28
2018-08-13T00:50:43.810Z,20.21
2018-08-13T00:51:43.795Z,20.20
2018-08-13T00:52:43.744Z,20.11
2018-08-13T00:53:43.717Z,20.28
2018-08-13T00:54:43.665Z,20.11
2018-08-13T00:55:43.629Z,20.17
2018-08-13T00:56:43.619Z,20.13
2018-08-13T00:57:43.567Z,20.16
2018-08-13T00:58:53.996Z,20.16
2018-08-13T00:59:43.481Z,20.16
2018-08-13T01:00:43.471Z,20.18
2018-08-13T01:01:43.409Z,20.14
2018-08-13T01:02:43.384Z,20.16
2018-08-13T01:03:43.348Z,20.16
2018-08-13T01:04:43.313Z,20.13
2018-08-13T01:05:43.293Z,20.13
2018-08-13T01:06:43.231Z,20.06
2018-08-13T01:07:43.202Z,20.05
2018-08-13T01:08:43.161Z,20.03
2018-08-13T01:09:43.125Z,20.03
2018-08-13T01:10:43.108Z,20.02
2018-08-13T01:11:43.052Z,20.11
2018-08-13T01:12:43.009Z,20.17
2018-08-13T01:13:42.979Z,20.13
2018-08-13T01:14:42.944Z,20.26
2018-08-13T01:15:42.928Z,20.23
2018-08-13T01:16:42.872Z,20.18
2018-08-13T01:17:42.835Z,20.28
2018-08-13T01:18:42.795Z,20.26
2018-08-13T01:19:42.758Z,20.21
2018-08-13T01:20:42.745Z,20.13
2018-08-13T01:21:42.702Z,20.11
2018-08-13T01:22:42.661Z,20.13
2018-08-13T01:23:42.623Z,20.20
2018-08-13T01:24:42.577Z,20.24
2018-08-13T01:25:42.559Z,20.17
2018-08-13T01:26:42.508Z,20.20
2018-08-13T01:27:42.472Z,20.23
2018-08-13T01:28:42.436Z,20.13
2018-08-13T01:29:42.399Z,20.23
2018-08-13T01:30:42.379Z,20.18
2018-08-13T01:31:42.328Z,20.24
2018-08-13T01:32:42.290Z,20.29
2018-08-13T01:33:42.249Z,20.29
2018-08-13T01:34:42.217Z,20.35
2018-08-13T01:35:42.214Z,20.20
2018-08-13T01:36:42.154Z,20.28
2018-08-13T01:37:42.121Z,20.20
2018-08-13T01:38:42.071Z,20.14
2018-08-13T01:39:42.029Z,20.21
2018-08-13T01:40:42.025Z,20.13
2018-08-13T01:41:41.978Z,20.24
2018-08-13T01:42:41.921Z,20.24
2018-08-13T01:43:41.890Z,20.32
2018-08-13T01:44:41.852Z,20.28
2018-08-13T01:45:41.841Z,20.28
2018-08-13T01:46:41.782Z,20.33
2018-08-13T01:47:41.751Z,20.26
2018-08-13T01:48:41.735Z,20.28
2018-08-13T01:49:41.677Z,20.26
2018-08-13T01:50:41.653Z,20.28
2018-08-13T01:51:41.601Z,20.29
2018-08-13T01:52:41.561Z,20.26
2018-08-13T01:53:41.618Z,20.39
2018-08-13T01:54:41.533Z,20.33
2018-08-13T01:55:41.456Z,20.32
2018-08-13T01:56:41.412Z,20.28
2018-08-13T01:57:41.380Z,20.32
2018-08-13T01:58:41.347Z,20.35
2018-08-13T01:59:41.330Z,20.32
2018-08-13T02:00:41.272Z,20.38
2018-08-13T02:01:41.295Z,20.35
2018-08-13T02:02:41.197Z,20.35
2018-08-13T02:03:41.156Z,20.36
2018-08-13T02:04:41.148Z,20.31
2018-08-13T02:05:41.084Z,20.43
2018-08-13T02:06:41.055Z,20.47
2018-08-13T02:07:41.021Z,20.48
2018-08-13T02:08:40.982Z,20.48
2018-08-13T02:09:40.970Z,20.50
2018-08-13T02:10:40.910Z,20.48
2018-08-13T02:11:40.869Z,20.51
2018-08-13T02:12:40.841Z,20.50
2018-08-13T02:13:40.858Z,20.57
2018-08-13T02:14:40.757Z,20.50
2018-08-13T02:15:40.744Z,20.51
2018-08-13T02:16:40.685Z,20.39
2018-08-13T02:17:40.658Z,20.43
2018-08-13T02:18:40.621Z,20.52
2018-08-13T02:19:40.586Z,20.43
2018-08-13T02:20:40.572Z,20.48
2018-08-13T02:21:40.520Z,20.52
2018-08-13T02:22:40.473Z,20.41
2018-08-13T02:23:40.462Z,20.39
2018-08-13T02:24:40.401Z,20.33
2018-08-13T02:25:40.396Z,20.24
2018-08-13T02:26:40.332Z,20.16
2018-08-13T02:27:40.324Z,20.13
2018-08-13T02:28:40.255Z,20.02
2018-08-13T02:29:40.219Z,19.92
2018-08-13T02:30:40.193Z,19.81
2018-08-13T02:31:40.176Z,19.77
2018-08-13T02:32:40.121Z,19.78
2018-08-13T02:33:40.105Z,19.76
2018-08-13T02:34:40.040Z,19.81
2018-08-13T02:35:48.549Z,19.84
2018-08-13T02:36:39.999Z,19.81
2018-08-13T02:37:39.938Z,19.88
2018-08-13T02:38:39.898Z,19.91
2018-08-13T02:39:39.866Z,20.10
2018-08-13T02:40:39.822Z,20.14
2018-08-13T02:41:39.813Z,20.17
2018-08-13T02:42:39.757Z,20.29
2018-08-13T02:43:39.719Z,20.26
2018-08-13T02:44:39.694Z,20.31
2018-08-13T02:45:39.640Z,20.26
2018-08-13T02:46:39.638Z,20.23
2018-08-13T02:47:39.566Z,20.24
2018-08-13T02:48:39.547Z,20.24
2018-08-13T02:49:39.502Z,20.24
2018-08-13T02:50:39.471Z,20.21
2018-08-13T02:51:39.453Z,20.24
2018-08-13T02:52:39.385Z,20.24
2018-08-13T02:53:39.353Z,20.28
2018-08-13T02:54:49.591Z,20.33
2018-08-13T02:55:39.286Z,20.28
2018-08-13T02:56:39.271Z,20.31
2018-08-13T02:57:39.211Z,20.29
2018-08-13T02:58:39.177Z,20.32
2018-08-13T02:59:39.174Z,20.33
2018-08-13T03:00:39.102Z,20.29
2018-08-13T03:01:39.103Z,20.32
2018-08-13T03:02:39.026Z,20.23
2018-08-13T03:03:38.991Z,20.28
2018-08-13T03:04:39.026Z,20.43
2018-08-13T03:05:38.911Z,20.38
2018-08-13T03:06:38.920Z,20.43
2018-08-13T03:07:38.850Z,20.47
2018-08-13T03:08:38.811Z,20.41
2018-08-13T03:09:38.778Z,20.47
2018-08-13T03:10:38.743Z,20.36
2018-08-13T03:11:38.697Z,20.39
2018-08-13T03:12:38.710Z,20.39
2018-08-13T03:13:49.126Z,20.41
2018-08-13T03:14:38.591Z,20.39
2018-08-13T03:15:38.561Z,20.48
2018-08-13T03:16:38.527Z,20.39
2018-08-13T03:17:38.510Z,20.39
2018-08-13T03:18:38.456Z,20.54
2018-08-13T03:19:38.415Z,20.54
2018-08-13T03:20:38.370Z,20.51
2018-08-13T03:21:38.341Z,20.57
2018-08-13T03:22:38.330Z,20.55
2018-08-13T03:23:38.276Z,20.57
2018-08-13T03:24:38.243Z,20.57
2018-08-13T03:25:38.203Z,20.58
2018-08-13T03:26:38.156Z,20.64
2018-08-13T03:27:38.121Z,20.70
2018-08-13T03:28:38.115Z,20.74
2018-08-13T03:29:38.055Z,20.84
2018-08-13T03:30:38.032Z,20.77
2018-08-13T03:31:37.985Z,20.74
2018-08-13T03:32:47.688Z,20.66
2018-08-13T03:33:37.998Z,20.57
2018-08-13T03:34:37.872Z,20.32
2018-08-13T03:35:37.836Z,20.29
2018-08-13T03:36:37.802Z,20.14
2018-08-13T03:37:37.787Z,19.98
2018-08-13T03:38:37.725Z,19.77
2018-08-13T03:39:37.689Z,19.80
2018-08-13T03:40:37.661Z,19.73
2018-08-13T03:41:37.622Z,19.65
2018-08-13T03:42:37.601Z,19.50
2018-08-13T03:43:37.545Z,19.58
2018-08-13T03:44:37.512Z,19.41
2018-08-13T03:45:37.471Z,19.43
2018-08-13T03:46:37.442Z,19.31
2018-08-13T03:47:37.427Z,19.28
2018-08-13T03:48:37.371Z,19.21
2018-08-13T03:49:37.333Z,19.18
2018-08-13T03:50:37.289Z,19.22
2018-08-13T03:51:37.256Z,19.07
2018-08-13T03:52:47.235Z,19.00
2018-08-13T03:53:37.189Z,19.10
2018-08-13T03:54:37.146Z,19.10
2018-08-13T03:55:37.110Z,19.10
2018-08-13T03:56:37.081Z,19.14
2018-08-13T03:57:37.066Z,19.07
2018-08-13T03:58:37.008Z,19.16
2018-08-13T03:59:36.969Z,19.18
2018-08-13T04:00:36.937Z,19.18
2018-08-13T04:01:36.896Z,19.28
2018-08-13T04:02:36.877Z,19.28
2018-08-13T04:03:36.821Z,19.28
2018-08-13T04:04:36.788Z,19.31
2018-08-13T04:05:36.751Z,19.48
2018-08-13T04:06:36.715Z,19.41
2018-08-13T04:07:36.707Z,19.46
2018-08-13T04:08:36.637Z,19.55
2018-08-13T04:09:36.599Z,19.43
2018-08-13T04:10:36.574Z,19.37
2018-08-13T04:11:36.561Z,19.56
2018-08-13T04:12:44.262Z,19.37
2018-08-13T04:13:36.455Z,19.43
2018-08-13T04:14:36.425Z,19.43
2018-08-13T04:15:36.387Z,19.37
2018-08-13T04:16:36.386Z,19.29
2018-08-13T04:17:36.318Z,19.28
2018-08-13T04:18:36.275Z,19.25
2018-08-13T04:19:36.246Z,19.26
2018-08-13T04:20:36.210Z,19.18
2018-08-13T04:21:36.189Z,19.26
2018-08-13T04:22:36.134Z,19.29
2018-08-13T04:23:36.120Z,19.21
2018-08-13T04:24:36.068Z,19.10
2018-08-13T04:25:36.021Z,18.95
2018-08-13T04:26:36.011Z,18.81
2018-08-13T04:27:35.954Z,18.72
2018-08-13T04:28:35.931Z,18.62
2018-08-13T04:29:35.881Z,18.51
2018-08-13T04:30:35.884Z,18.51
2018-08-13T04:31:35.823Z,18.39
2018-08-13T04:32:47.901Z,18.32
2018-08-13T04:33:35.741Z,18.26
2018-08-13T04:34:35.702Z,18.05
2018-08-13T04:35:35.658Z,18.00
2018-08-13T04:36:35.669Z,17.99
2018-08-13T04:37:35.575Z,17.95
2018-08-13T04:38:35.617Z,17.87
2018-08-13T04:39:35.539Z,17.92
2018-08-13T04:40:35.472Z,17.79
2018-08-13T04:41:35.462Z,17.77
2018-08-13T04:42:35.392Z,17.68
2018-08-13T04:43:35.366Z,17.59
2018-08-13T04:44:35.321Z,17.52
2018-08-13T04:45:35.284Z,17.31
2018-08-13T04:46:35.274Z,17.25
2018-08-13T04:47:35.211Z,17.16
2018-08-13T04:48:35.164Z,17.01
2018-08-13T04:49:35.129Z,16.98
2018-08-13T04:50:44.862Z,16.86
2018-08-13T04:51:35.065Z,16.85
2018-08-13T04:52:35.020Z,16.85
2018-08-13T04:53:34.980Z,16.88
2018-08-13T04:54:34.955Z,16.79
2018-08-13T04:55:34.938Z,16.76
2018-08-13T04:56:34.881Z,16.83
2018-08-13T04:57:34.841Z,16.88
2018-08-13T04:58:34.793Z,16.89
2018-08-13T04:59:34.754Z,16.89
2018-08-13T05:00:34.737Z,16.86
2018-08-13T05:01:34.686Z,16.78
2018-08-13T05:02:34.653Z,16.78
2018-08-13T05:03:34.614Z,16.85
2018-08-13T05:04:34.578Z,16.93
2018-08-13T05:05:34.556Z,16.89
2018-08-13T05:06:34.492Z,16.75
2018-08-13T05:07:34.455Z,16.73
2018-08-13T05:08:34.423Z,16.75
2018-08-13T05:09:34.388Z,16.78
2018-08-13T05:10:34.371Z,16.86
2018-08-13T05:11:34.302Z,16.85
2018-08-13T05:12:34.264Z,16.86
2018-08-13T05:13:34.226Z,16.85
2018-08-13T05:14:34.197Z,16.88
2018-08-13T05:15:34.183Z,16.96
2018-08-13T05:16:34.132Z,16.96
2018-08-13T05:17:34.089Z,16.85
2018-08-13T05:18:34.044Z,17.01
2018-08-13T05:19:34.005Z,17.00
2018-08-13T05:20:33.984Z,17.03
2018-08-13T05:21:33.929Z,17.00
2018-08-13T05:22:33.900Z,17.04
2018-08-13T05:23:33.861Z,17.08
2018-08-13T05:24:33.816Z,17.00
2018-08-13T05:25:33.799Z,17.14
2018-08-13T05:26:33.754Z,17.01
2018-08-13T05:27:33.716Z,17.15
2018-08-13T05:28:33.671Z,17.12
2018-08-13T05:29:33.636Z,17.15
2018-08-13T05:30:33.612Z,17.11
2018-08-13T05:31:33.555Z,17.08
2018-08-13T05:32:33.516Z,17.12
2018-08-13T05:33:33.479Z,17.04
2018-08-13T05:34:33.455Z,17.11
2018-08-13T05:35:33.479Z,16.97
2018-08-13T05:36:33.373Z,17.01
2018-08-13T05:37:33.335Z,16.98
2018-08-13T05:38:33.291Z,16.98
2018-08-13T05:39:33.255Z,16.98
2018-08-13T05:40:33.244Z,17.00
2018-08-13T05:41:33.184Z,16.97
2018-08-13T05:42:33.140Z,16.94
2018-08-13T05:43:33.103Z,16.91
2018-08-13T05:44:33.094Z,16.82
2018-08-13T05:45:33.030Z,16.93
2018-08-13T05:46:33.008Z,16.94
2018-08-13T05:47:32.963Z,16.98
2018-08-13T05:48:32.922Z,17.07
2018-08-13T05:49:40.449Z,17.01
2018-08-13T05:50:32.845Z,17.01
2018-08-13T05:51:32.804Z,16.97
2018-08-13T05:52:32.771Z,16.96
2018-08-13T05:53:32.734Z,17.07
2018-08-13T05:54:32.718Z,17.03
2018-08-13T05:55:32.653Z,17.00
2018-08-13T05:56:32.621Z,16.89
2018-08-13T05:57:32.584Z,16.86
2018-08-13T05:58:32.548Z,16.85
2018-08-13T05:59:32.534Z,16.89
2018-08-13T06:00:32.464Z,16.73
2018-08-13T06:01:32.425Z,16.76
2018-08-13T06:02:32.389Z,16.78
2018-08-13T06:03:32.352Z,16.73
2018-08-13T06:04:32.338Z,16.76
2018-08-13T06:05:32.286Z,16.67
2018-08-13T06:06:32.247Z,16.71
2018-08-13T06:07:32.209Z,16.61
2018-08-13T06:08:32.162Z,16.61
2018-08-13T06:09:32.146Z,16.49
2018-08-13T06:10:32.096Z,16.48
2018-08-13T06:11:32.104Z,16.46
2018-08-13T06:12:32.008Z,16.46
2018-08-13T06:13:31.972Z,16.50
2018-08-13T06:14:31.958Z,16.57
2018-08-13T06:15:31.898Z,16.60
2018-08-13T06:16:31.866Z,16.57
2018-08-13T06:17:31.826Z,16.60
2018-08-13T06:18:31.788Z,16.57
2018-08-13T06:19:31.776Z,16.60
2018-08-13T06:20:31.709Z,16.68
2018-08-13T06:21:31.670Z,16.76
2018-08-13T06:22:31.628Z,16.83
2018-08-13T06:23:31.591Z,16.89
2018-08-13T06:24:31.579Z,16.98
2018-08-13T06:25:31.522Z,17.03
2018-08-13T06:26:31.483Z,16.98
2018-08-13T06:27:31.445Z,17.07
2018-08-13T06:28:31.408Z,17.04
2018-08-13T06:29:31.393Z,17.15
2018-08-13T06:30:31.336Z,17.11
2018-08-13T06:31:31.292Z,17.14
2018-08-13T06:32:31.253Z,17.18
2018-08-13T06:33:31.232Z,17.16
2018-08-13T06:34:31.175Z,17.18
2018-08-13T06:35:31.136Z,17.15
2018-08-13T06:36:31.129Z,17.18
2018-08-13T06:37:31.066Z,17.18
2018-08-13T06:38:31.056Z,17.21
2018-08-13T06:39:30.995Z,17.16
2018-08-13T06:40:30.963Z,17.15
2018-08-13T06:41:30.908Z,17.15
2018-08-13T06:42:30.880Z,17.16
2018-08-13T06:43:30.871Z,17.21
2018-08-13T06:44:30.799Z,17.18
2018-08-13T06:45:30.762Z,17.18
2018-08-13T06:46:30.724Z,17.22
2018-08-13T06:47:30.684Z,17.26
2018-08-13T06:48:30.675Z,17.36
2018-08-13T06:49:30.616Z,17.36
2018-08-13T06:50:30.584Z,17.44
2018-08-13T06:51:30.543Z,17.49
2018-08-13T06:52:30.499Z,17.48
2018-08-13T06:53:30.483Z,17.48
2018-08-13T06:54:30.424Z,17.49
2018-08-13T06:55:30.388Z,17.63
2018-08-13T06:56:30.356Z,17.63
2018-08-13T06:57:30.323Z,17.62
2018-08-13T06:58:30.304Z,17.68
2018-08-13T06:59:30.238Z,17.59
2018-08-13T07:00:30.218Z,17.63
2018-08-13T07:01:30.172Z,17.70
2018-08-13T07:02:30.136Z,17.77
2018-08-13T07:03:30.135Z,17.64
2018-08-13T07:04:40.455Z,17.72
2018-08-13T07:05:30.012Z,17.74
2018-08-13T07:06:29.996Z,17.84
2018-08-13T07:07:29.949Z,17.89
2018-08-13T07:08:29.933Z,17.81
2018-08-13T07:09:29.873Z,17.90
2018-08-13T07:10:29.830Z,18.00
2018-08-13T07:11:29.793Z,18.00
2018-08-13T07:12:29.763Z,18.05
2018-08-13T07:13:29.751Z,18.03
2018-08-13T07:14:29.683Z,18.29
2018-08-13T07:15:29.648Z,18.25
2018-08-13T07:16:29.609Z,18.36
2018-08-13T07:17:29.581Z,18.36
2018-08-13T07:18:29.562Z,18.44
2018-08-13T07:19:29.508Z,18.41
2018-08-13T07:20:29.471Z,18.51
2018-08-13T07:21:29.436Z,18.52
2018-08-13T07:22:29.502Z,18.52
2018-08-13T07:23:29.355Z,18.51
2018-08-13T07:24:40.488Z,18.51
2018-08-13T07:25:29.290Z,18.52
2018-08-13T07:26:29.245Z,18.58
2018-08-13T07:27:29.234Z,18.60
2018-08-13T07:28:29.181Z,18.69
2018-08-13T07:29:29.147Z,18.70
2018-08-13T07:30:29.113Z,18.66
2018-08-13T07:31:29.075Z,18.60
2018-08-13T07:32:29.051Z,18.52
2018-08-13T07:33:29.004Z,18.58
2018-08-13T07:34:28.957Z,18.37
2018-08-13T07:35:28.924Z,18.42
2018-08-13T07:36:28.896Z,18.39
2018-08-13T07:37:28.876Z,18.36
2018-08-13T07:38:28.822Z,18.37
2018-08-13T07:39:28.880Z,18.30
2018-08-13T07:40:28.745Z,18.35
2018-08-13T07:41:28.705Z,18.33
2018-08-13T07:42:28.699Z,18.30
2018-08-13T07:43:39.031Z,18.35
2018-08-13T07:44:28.604Z,18.37
2018-08-13T07:45:28.622Z,18.35
2018-08-13T07:46:28.584Z,18.39
2018-08-13T07:47:28.518Z,18.36
2018-08-13T07:48:28.461Z,18.25
2018-08-13T07:49:28.426Z,18.35
2018-08-13T07:50:28.380Z,18.32
2018-08-13T07:51:28.346Z,18.18
2018-08-13T07:52:28.336Z,18.33
2018-08-13T07:53:28.277Z,18.42
2018-08-13T07:54:28.245Z,18.39
2018-08-13T07:55:28.219Z,18.32
2018-08-13T07:56:28.166Z,18.29
2018-08-13T07:57:28.151Z,18.26
2018-08-13T07:58:28.094Z,18.26
2018-08-13T07:59:28.073Z,18.18
2018-08-13T08:00:28.027Z,18.18
2018-08-13T08:01:27.998Z,18.05
2018-08-13T08:02:37.592Z,18.02
2018-08-13T08:03:27.923Z,17.92
2018-08-13T08:04:27.884Z,17.92
2018-08-13T08:05:27.843Z,17.93
2018-08-13T08:06:27.807Z,17.95
2018-08-13T08:07:27.793Z,17.89
2018-08-13T08:08:27.738Z,17.78
2018-08-13T08:09:27.690Z,17.79
2018-08-13T08:10:27.690Z,17.82
2018-08-13T08:11:27.646Z,17.74
2018-08-13T08:12:27.578Z,17.70
2018-08-13T08:13:27.543Z,17.63
2018-08-13T08:14:27.511Z,17.64
2018-08-13T08:15:27.471Z,17.55
2018-08-13T08:16:27.477Z,17.54
2018-08-13T08:17:27.403Z,17.48
2018-08-13T08:18:27.368Z,17.46
2018-08-13T08:19:27.347Z,17.49
2018-08-13T08:20:27.282Z,17.49
2018-08-13T08:21:27.270Z,17.46
2018-08-13T08:22:27.208Z,17.49
2018-08-13T08:23:27.172Z,17.37
2018-08-13T08:24:27.149Z,17.43
2018-08-13T08:25:27.106Z,17.34
2018-08-13T08:26:27.083Z,17.33
2018-08-13T08:27:27.027Z,17.41
2018-08-13T08:28:26.994Z,17.41
2018-08-13T08:29:27.081Z,17.36
2018-08-13T08:30:26.929Z,17.44
2018-08-13T08:31:26.904Z,17.43
2018-08-13T08:32:26.835Z,17.43
2018-08-13T08:33:26.800Z,17.44
2018-08-13T08:34:26.761Z,17.38
2018-08-13T08:35:26.725Z,17.48
2018-08-13T08:36:26.712Z,17.43
2018-08-13T08:37:26.656Z,17.54
2018-08-13T08:38:26.620Z,17.49
2018-08-13T08:39:36.614Z,17.54
2018-08-13T08:40:26.547Z,17.41
2018-08-13T08:41:26.528Z,17.40
2018-08-13T08:42:26.462Z,17.31
2018-08-13T08:43:26.427Z,17.41
2018-08-13T08:44:26.384Z,17.40
2018-08-13T08:45:26.347Z,17.46
2018-08-13T08:46:26.345Z,17.44
2018-08-13T08:47:26.281Z,17.43
2018-08-13T08:48:26.243Z,17.55
2018-08-13T08:49:26.204Z,17.62
2018-08-13T08:50:26.171Z,17.63
2018-08-13T08:51:26.152Z,17.78
2018-08-13T08:52:26.083Z,17.77
2018-08-13T08:53:26.071Z,17.84
2018-08-13T08:54:26.032Z,17.90
2018-08-13T08:55:26.003Z,17.99
2018-08-13T08:56:25.946Z,18.02
2018-08-13T08:57:25.900Z,17.99
2018-08-13T08:58:25.873Z,18.15
2018-08-13T08:59:37.159Z,18.27
2018-08-13T09:00:25.814Z,18.41
2018-08-13T09:01:25.752Z,18.72
2018-08-13T09:02:25.715Z,18.99
2018-08-13T09:03:25.677Z,19.04
2018-08-13T09:04:25.647Z,19.25
2018-08-13T09:05:25.644Z,19.40
2018-08-13T09:06:25.575Z,19.43
2018-08-13T09:07:25.543Z,19.65
2018-08-13T09:08:25.491Z,19.73
2018-08-13T09:09:25.457Z,19.77
2018-08-13T09:10:25.430Z,19.76
2018-08-13T09:11:25.416Z,19.80
2018-08-13T09:12:25.348Z,19.78
2018-08-13T09:13:25.319Z,19.66
2018-08-13T09:14:25.282Z,19.62
2018-08-13T09:15:25.264Z,19.51
2018-08-13T09:16:25.214Z,19.31
2018-08-13T09:17:25.180Z,19.21
2018-08-13T09:18:25.152Z,19.08
2018-08-13T09:19:35.196Z,19.08
2018-08-13T09:20:25.109Z,19.00
2018-08-13T09:21:25.032Z,18.84
2018-08-13T09:22:25.004Z,18.81
2018-08-13T09:23:24.966Z,18.69
2018-08-13T09:24:24.921Z,18.73
2018-08-13T09:25:24.943Z,18.67
2018-08-13T09:26:24.858Z,18.67
2018-08-13T09:27:24.847Z,18.70
2018-08-13T09:28:24.795Z,18.50
2018-08-13T09:29:24.753Z,18.39
2018-08-13T09:30:24.749Z,18.33
2018-08-13T09:31:24.684Z,18.32
2018-08-13T09:32:24.643Z,18.30
2018-08-13T09:33:24.599Z,18.36
2018-08-13T09:34:24.579Z,18.35
2018-08-13T09:35:24.534Z,18.30
2018-08-13T09:36:24.533Z,18.23
2018-08-13T09:37:24.469Z,18.29
2018-08-13T09:38:24.426Z,18.25
2018-08-13T09:39:35.760Z,18.30
2018-08-13T09:40:24.404Z,18.27
2018-08-13T09:41:24.356Z,18.25
2018-08-13T09:42:24.275Z,18.36
2018-08-13T09:43:24.245Z,18.41
2018-08-13T09:44:24.206Z,18.47
2018-08-13T09:45:24.171Z,18.42
2018-08-13T09:46:24.155Z,18.58
2018-08-13T09:47:24.094Z,18.47
2018-08-13T09:48:24.052Z,18.67
2018-08-13T09:49:24.016Z,18.69
2018-08-13T09:50:23.982Z,18.84
2018-08-13T09:51:23.962Z,18.94
2018-08-13T09:52:23.912Z,19.18
2018-08-13T09:53:23.873Z,19.40
2018-08-13T09:54:23.830Z,19.59
2018-08-13T09:55:23.791Z,19.74
2018-08-13T09:56:23.789Z,19.77
2018-08-13T09:57:23.731Z,19.48
2018-08-13T09:58:23.695Z,19.54
2018-08-13T09:59:33.805Z,19.44
2018-08-13T10:00:23.682Z,19.54
2018-08-13T10:01:23.589Z,19.54
2018-08-13T10:02:23.574Z,19.63
2018-08-13T10:03:23.523Z,19.61
2018-08-13T10:04:23.480Z,19.88
2018-08-13T10:05:23.441Z,20.38
2018-08-13T10:06:23.396Z,20.82
2018-08-13T10:07:23.387Z,21.50
2018-08-13T10:08:23.337Z,21.65
2018-08-13T10:09:23.343Z,21.94
2018-08-13T10:10:23.269Z,21.79
2018-08-13T10:11:23.218Z,21.58
2018-08-13T10:12:23.218Z,21.64
2018-08-13T10:13:23.154Z,21.65
2018-08-13T10:14:23.120Z,21.77
2018-08-13T10:15:23.107Z,22.20
2018-08-13T10:16:23.062Z,22.22
2018-08-13T10:17:23.096Z,22.07
2018-08-13T10:18:32.903Z,21.94
2018-08-13T10:19:22.959Z,21.91
2018-08-13T10:20:22.943Z,22.14
2018-08-13T10:21:22.893Z,22.09
2018-08-13T10:22:22.847Z,22.02
2018-08-13T10:23:22.846Z,22.07
2018-08-13T10:24:22.793Z,22.30
2018-08-13T10:25:22.767Z,22.45
2018-08-13T10:26:22.724Z,22.67
2018-08-13T10:27:22.695Z,22.83
2018-08-13T10:28:22.679Z,22.61
2018-08-13T10:29:22.622Z,22.60
2018-08-13T10:30:22.657Z,22.62
2018-08-13T10:31:22.558Z,22.35
2018-08-13T10:32:22.531Z,22.43
2018-08-13T10:33:22.507Z,22.36
2018-08-13T10:34:22.495Z,22.62
2018-08-13T10:35:22.443Z,22.98
2018-08-13T10:36:22.398Z,22.95
2018-08-13T10:37:22.385Z,23.01
2018-08-13T10:38:22.345Z,22.83
2018-08-13T10:39:22.340Z,22.62
2018-08-13T10:40:22.315Z,22.58
2018-08-13T10:41:22.243Z,22.58
2018-08-13T10:42:22.215Z,22.40
2018-08-13T10:43:22.177Z,22.31
2018-08-13T10:44:22.177Z,22.27
2018-08-13T10:45:22.122Z,22.39
2018-08-13T10:46:22.091Z,22.49
2018-08-13T10:47:22.053Z,22.35
2018-08-13T10:48:22.040Z,22.39
2018-08-13T10:49:22.027Z,22.43
2018-08-13T10:50:21.951Z,22.37
2018-08-13T10:51:21.978Z,22.10
2018-08-13T10:52:21.899Z,21.92
2018-08-13T10:53:21.863Z,21.69
2018-08-13T10:54:21.929Z,21.77
2018-08-13T10:55:21.814Z,21.82
2018-08-13T10:56:21.766Z,21.98
2018-08-13T10:57:21.731Z,22.09
2018-08-13T10:58:21.701Z,22.27
2018-08-13T10:59:21.670Z,22.31
2018-08-13T11:00:21.650Z,22.37
2018-08-13T11:01:21.599Z,22.46
2018-08-13T11:02:21.563Z,22.45
2018-08-13T11:03:21.539Z,22.35
2018-08-13T11:04:21.517Z,22.52
2018-08-13T11:05:21.497Z,22.86
2018-08-13T11:06:21.444Z,23.09
2018-08-13T11:07:21.409Z,23.38
2018-08-13T11:08:21.370Z,23.58
2018-08-13T11:09:21.340Z,23.69
2018-08-13T11:10:21.344Z,23.84
2018-08-13T11:11:21.310Z,23.63
2018-08-13T11:12:21.239Z,22.98
2018-08-13T11:13:21.216Z,22.83
2018-08-13T11:14:21.175Z,22.76
2018-08-13T11:15:21.145Z,22.47
2018-08-13T11:16:21.150Z,22.28
2018-08-13T11:17:21.085Z,22.18
2018-08-13T11:18:30.395Z,22.06
2018-08-13T11:19:21.021Z,22.14
2018-08-13T11:20:20.982Z,22.03
2018-08-13T11:21:20.972Z,21.92
2018-08-13T11:22:20.924Z,21.79
2018-08-13T11:23:20.891Z,21.74
2018-08-13T11:24:20.854Z,21.75
2018-08-13T11:25:20.876Z,21.86
2018-08-13T11:26:20.820Z,22.05
2018-08-13T11:27:20.768Z,22.51
2018-08-13T11:28:20.731Z,22.86
2018-08-13T11:29:20.696Z,23.28
2018-08-13T11:30:20.654Z,23.80
2018-08-13T11:31:20.686Z,24.06
2018-08-13T11:32:20.590Z,24.24
2018-08-13T11:33:20.560Z,24.08
2018-08-13T11:34:20.539Z,23.94
2018-08-13T11:35:20.506Z,23.94
2018-08-13T11:36:20.493Z,23.97
2018-08-13T11:37:20.436Z,23.80
2018-08-13T11:38:30.438Z,23.80
2018-08-13T11:39:20.373Z,23.85
2018-08-13T11:40:20.340Z,23.69
2018-08-13T11:41:20.307Z,23.79
2018-08-13T11:42:20.303Z,24.13
2018-08-13T11:43:20.248Z,24.10
2018-08-13T11:44:20.223Z,24.08
2018-08-13T11:45:20.200Z,23.36
2018-08-13T11:46:20.178Z,22.58
2018-08-13T11:47:20.152Z,22.39
2018-08-13T11:48:20.100Z,22.42
2018-08-13T11:49:20.064Z,22.36
2018-08-13T11:50:20.033Z,22.18
2018-08-13T11:51:21.082Z,22.02
2018-08-13T11:52:20.027Z,22.06
2018-08-13T11:53:19.963Z,22.07
2018-08-13T11:54:19.909Z,22.18
2018-08-13T11:55:19.876Z,22.21
2018-08-13T11:56:19.862Z,22.12
2018-08-13T11:57:19.817Z,22.07
2018-08-13T11:58:29.495Z,22.46
2018-08-13T11:59:19.756Z,22.68
2018-08-13T12:00:19.718Z,22.79
2018-08-13T12:01:19.682Z,22.70
2018-08-13T12:02:19.661Z,22.60
2018-08-13T12:03:19.666Z,22.64
2018-08-13T12:04:19.595Z,22.42
2018-08-13T12:05:19.569Z,22.21
2018-08-13T12:06:19.558Z,22.18
2018-08-13T12:07:19.501Z,22.02
2018-08-13T12:08:19.500Z,21.64
2018-08-13T12:09:19.428Z,21.49
2018-08-13T12:10:19.399Z,21.34
2018-08-13T12:11:19.369Z,21.27
2018-08-13T12:12:19.326Z,21.13
2018-08-13T12:13:19.363Z,20.92
2018-08-13T12:14:19.294Z,20.89
2018-08-13T12:15:19.238Z,20.77
2018-08-13T12:16:19.193Z,20.67
2018-08-13T12:17:19.176Z,20.61
2018-08-13T12:18:19.132Z,20.50
2018-08-13T12:19:19.143Z,20.36
2018-08-13T12:20:19.059Z,20.26
2018-08-13T12:21:19.028Z,20.18
2018-08-13T12:22:18.992Z,20.06
2018-08-13T12:23:18.968Z,19.98
2018-08-13T12:24:18.945Z,19.91
2018-08-13T12:25:18.882Z,19.86
2018-08-13T12:26:18.895Z,19.76
2018-08-13T12:27:18.826Z,19.80
2018-08-13T12:28:18.790Z,19.80
2018-08-13T12:29:18.804Z,19.74
2018-08-13T12:30:18.801Z,19.63
2018-08-13T12:31:18.708Z,19.54
2018-08-13T12:32:18.640Z,19.46
2018-08-13T12:33:18.631Z,19.48
2018-08-13T12:34:18.576Z,19.40
2018-08-13T12:35:18.576Z,19.44
2018-08-13T12:36:18.519Z,19.36
2018-08-13T12:37:18.525Z,19.40
2018-08-13T12:38:28.541Z,19.31
2018-08-13T12:39:18.413Z,19.31
2018-08-13T12:40:18.376Z,19.28
2018-08-13T12:41:18.319Z,19.23
2018-08-13T12:42:18.324Z,19.29
2018-08-13T12:43:18.250Z,19.29
2018-08-13T12:44:18.242Z,19.40
2018-08-13T12:45:18.215Z,19.48
2018-08-13T12:46:18.145Z,19.66
2018-08-13T12:47:18.114Z,19.84
2018-08-13T12:48:18.082Z,20.02
2018-08-13T12:49:18.024Z,20.36
2018-08-13T12:50:17.988Z,20.54
2018-08-13T12:51:17.971Z,20.54
2018-08-13T12:52:17.942Z,20.77